Latest Weather Observations for Point Stuart

IDD60901

Issued at 6:11 pm CST Tuesday 27 September 2016 (issued every 10 minutes, with the page automatically refreshed every 10 minutes)

About weather observations | Map of Darwin area stations | Latest observations for Darwin area | Other Formats
Station Details ID: 014254 Name: POINT STUART Lat: -12.24 Lon: 131.88 Height: 1.0 m
Data from the previous 72 hours. | See also: Recent months at Point Stuart
Date/Time
CST
Temp
°C
App
Temp
°C
Dew
Point
°C
Rel
Hum
%
Delta-T
°C
Wind Press
QNH
hPa
Press
MSL
hPa
Rain since
9am
mm
Dir  Spd
km/h
Gust
km/h
Spd
kts
Gust
kts
27/06:00pm 31.3 35.2 22.9 61 5.8 N 7 13 4 7 1008.0 1008.0 0.0
27/05:30pm 32.0 35.9 23.0 59 6.2 N 7 11 4 6 1007.6 - 0.0
27/05:00pm 32.5 36.7 23.4 58 6.3 N 7 13 4 7 1007.6 - 0.0
27/04:30pm 32.1 35.7 23.1 59 6.2 N 9 13 5 7 1007.4 - 0.0
27/04:00pm 32.4 36.3 23.6 59 6.1 N 9 17 5 9 1007.6 - 0.0
27/03:30pm 32.6 36.4 24.1 61 5.9 N 11 17 6 9 1007.9 - 0.0
27/03:00pm 32.5 35.9 24.0 61 5.9 N 13 24 7 13 1008.3 1008.3 0.0
27/02:30pm 32.8 36.7 24.8 62 5.6 N 13 20 7 11 1008.6 - 0.0
27/02:00pm 32.4 35.8 24.7 64 5.4 N 15 24 8 13 1008.8 - 0.0
27/01:30pm 33.1 37.1 25.6 64 5.3 N 15 24 8 13 1009.2 - 0.0
27/01:00pm 33.0 37.9 25.8 66 5.1 N 11 19 6 10 1009.7 - 0.0
27/12:30pm 32.4 36.8 25.7 68 4.8 NNW 13 20 7 11 1010.2 - 0.0
27/12:00pm 32.6 37.5 26.4 70 4.5 NNW 13 22 7 12 1010.7 1010.7 0.0
27/11:30am 32.4 37.4 26.5 71 4.2 NNW 13 20 7 11 1011.2 - 0.0
27/11:00am 32.1 37.0 26.9 74 3.8 NNW 15 22 8 12 1011.6 - 0.0
27/10:30am 31.7 36.2 26.9 76 3.5 NW 17 22 9 12 1011.9 - 0.0
27/10:00am 31.0 35.6 27.1 80 2.8 NW 17 22 9 12 1012.0 - 0.0
27/09:30am 30.5 35.5 27.1 82 2.5 WNW 15 20 8 11 1012.0 - 0.0
27/09:00am 29.9 35.5 26.9 84 2.2 WSW 11 15 6 8 1012.0 1012.0 0.0
27/08:30am 29.0 34.8 26.6 87 1.7 SW 9 13 5 7 1011.9 - 0.0
27/08:00am 28.2 34.5 26.8 92 1.0 N 7 9 4 5 1011.7 - 0.0
27/07:30am 27.0 34.0 25.9 94 0.8 CALM 0 6 0 3 1011.5 - 0.0
27/07:00am 25.4 31.2 24.0 92 1.0 CALM 0 0 0 0 1011.2 - 0.0
27/06:30am 25.2 30.8 23.6 91 1.1 CALM 0 0 0 0 1010.8 - 0.0
27/06:00am 25.6 30.5 23.6 89 1.4 N 4 7 2 4 1010.6 1010.6 0.0
27/05:30am 26.1 31.9 24.0 88 1.4 CALM 0 0 0 0 1010.3 - 0.0
27/05:00am 26.9 32.0 24.7 88 1.5 N 6 9 3 5 1010.1 - 0.0
27/04:30am 27.2 32.5 25.0 88 1.5 N 6 9 3 5 1009.8 - 0.0
27/04:00am 27.4 32.8 25.2 88 1.5 N 6 9 3 5 1009.8 - 0.0
27/03:30am 27.2 32.8 24.8 87 1.7 N 4 7 2 4 1009.6 - 0.0
27/03:00am 27.2 32.1 24.6 86 1.8 NNW 7 11 4 6 1009.3 1009.3 0.0
27/02:30am 27.5 31.4 24.9 86 1.8 NW 13 17 7 9 1009.3 - 0.0
27/02:00am 27.9 31.9 25.1 85 2.0 NW 13 17 7 9 1009.3 - 0.0
27/01:30am 27.3 31.6 24.2 83 2.1 WNW 9 13 5 7 1009.5 - 0.0
27/01:00am 27.2 31.5 23.7 81 2.4 NNW 7 9 4 5 1009.8 - 0.0
27/12:30am 27.4 30.9 23.6 80 2.6 NW 11 11 6 6 1010.0 - 0.0
27/12:00am 27.4 31.1 23.2 78 2.9 NNW 9 11 5 6 1010.1 1010.1 0.0
 
Date/Time
CST
Temp
°C
App
Temp
°C
Dew
Point
°C
Rel
Hum
%
Delta-T
°C
Wind Press
QNH
hPa
Press
MSL
hPa
Rain since
9am
mm
Dir  Spd
km/h
Gust
km/h
Spd
kts
Gust
kts
26/11:30pm 27.7 32.0 23.3 77 3.0 N 6 7 3 4 1010.5 - 0.0
26/11:00pm 28.3 32.8 23.7 76 3.2 N 6 11 3 6 1010.5 - 0.0
26/10:30pm 28.6 33.4 23.5 74 3.5 N 4 9 2 5 1010.6 - 0.0
26/10:00pm 28.9 33.0 23.3 72 3.8 N 7 11 4 6 1010.4 - 0.0
26/09:30pm 29.0 32.8 22.7 69 4.3 N 7 13 4 7 1010.3 - 0.0
26/09:00pm 29.2 32.3 22.2 66 4.7 N 9 15 5 8 1010.0 1010.0 0.0
26/08:30pm 29.4 32.4 21.9 64 5.1 NNE 9 15 5 8 1009.7 - 0.0
26/08:00pm 29.3 31.8 21.8 64 5.0 NNE 11 17 6 9 1009.3 - 0.0
26/07:30pm 29.5 32.7 21.7 63 5.2 N 7 11 4 6 1009.1 - 0.0
26/07:00pm 30.0 33.2 21.7 61 5.6 N 7 13 4 7 1008.7 - 0.0
26/06:30pm 30.9 34.1 21.7 58 6.2 N 7 11 4 6 1008.2 - 0.0
26/06:00pm 31.9 35.1 22.3 56 6.6 N 9 15 5 8 1007.8 1007.8 0.0
26/05:30pm 32.4 36.0 23.1 58 6.4 N 9 17 5 9 1007.5 - 0.0
26/05:00pm 32.3 35.4 23.5 59 6.1 N 13 22 7 12 1007.3 - 0.0
26/04:30pm 32.6 36.2 24.4 62 5.7 N 13 22 7 12 1007.3 - 0.0
26/04:00pm 32.9 36.6 24.6 61 5.8 N 13 20 7 11 1007.3 - 0.0
26/03:30pm 32.4 35.5 24.2 62 5.7 N 15 24 8 13 1007.6 - 0.0
26/03:00pm 32.2 35.8 25.0 65 5.1 NNE 15 26 8 14 1007.7 1007.7 0.0
26/02:30pm 32.4 36.5 25.7 68 4.8 N 15 26 8 14 1008.0 - 0.0
26/02:00pm 32.1 36.5 26.2 71 4.2 NNE 15 26 8 14 1008.4 - 0.0
26/01:30pm 32.1 36.0 26.6 72 4.0 NNE 19 35 10 19 1008.8 - 0.0
26/01:00pm 32.1 36.2 26.9 74 3.8 NE 19 32 10 17 1009.2 - 0.0
26/12:30pm 31.9 35.4 26.9 75 3.6 NE 22 30 12 16 1009.6 - 0.0
26/12:00pm 32.0 35.6 27.0 75 3.6 NE 22 30 12 16 1009.9 1009.9 0.0
26/11:30am 31.6 35.1 26.8 75 3.5 NE 22 32 12 17 1010.3 - 0.0
26/11:00am 31.5 35.3 26.7 75 3.5 NE 20 28 11 15 1010.6 - 0.0
26/10:30am 31.2 35.5 26.7 77 3.2 NE 17 24 9 13 1010.9 - 0.0
26/10:00am 30.9 35.2 26.6 78 3.1 ENE 17 20 9 11 1011.2 - 0.0
26/09:30am 30.9 36.4 26.8 79 2.9 NE 11 17 6 9 1011.1 - 0.0
26/09:00am 30.0 36.4 27.0 84 2.2 ENE 7 13 4 7 1011.0 1011.0 0.0
26/08:30am 29.0 35.6 27.7 93 0.9 NE 9 13 5 7 1010.8 - 0.0
26/08:00am 27.7 35.0 27.4 98 0.2 S 4 7 2 4 1010.5 - 0.0
26/07:30am 26.4 32.5 26.2 99 0.1 S 6 7 3 4 1010.4 - 0.0
26/07:00am 25.6 31.1 25.3 98 0.2 S 6 7 3 4 1009.9 - 0.0
26/06:30am 25.2 30.3 24.7 97 0.3 S 6 9 3 5 1009.2 - 0.0
26/06:00am 25.2 30.5 24.3 95 0.6 SSW 4 7 2 4 1008.9 1008.9 0.0
26/05:30am 25.3 31.3 24.3 94 0.7 CALM 0 0 0 0 1008.7 - 0.0
26/05:00am 25.4 31.4 24.2 93 0.8 CALM 0 0 0 0 1008.6 - 0.0
26/04:30am 25.7 31.7 24.3 92 1.0 CALM 0 0 0 0 1008.4 - 0.0
26/04:00am 25.9 31.9 24.3 91 1.1 CALM 0 0 0 0 1008.6 - 0.0
26/03:30am 26.2 32.3 24.4 90 1.2 CALM 0 0 0 0 1008.4 - 0.0
26/03:00am 26.3 32.3 24.3 89 1.4 CALM 0 0 0 0 1008.4 1008.4 0.0
26/02:30am 26.6 32.3 24.4 88 1.5 SW 2 6 1 3 1008.4 - 0.0
26/02:00am 26.7 31.5 24.4 87 1.6 WSW 7 9 4 5 1008.7 - 0.0
26/01:30am 27.1 31.2 24.6 86 1.7 SW 11 13 6 7 1009.0 - 0.0
26/01:00am 27.3 31.3 24.4 84 2.0 WSW 11 15 6 8 1009.1 - 0.0
26/12:30am 27.9 32.3 24.5 82 2.4 WSW 9 11 5 6 1009.4 - 0.0
26/12:00am 28.6 33.0 25.0 81 2.5 W 11 13 6 7 1009.6 1009.6 0.0
 
Date/Time
CST
Temp
°C
App
Temp
°C
Dew
Point
°C
Rel
Hum
%
Delta-T
°C
Wind Press
QNH
hPa
Press
MSL
hPa
Rain since
9am
mm
Dir  Spd
km/h
Gust
km/h
Spd
kts
Gust
kts
25/11:30pm 29.0 32.2 25.0 79 2.8 W 17 24 9 13 1009.8 - 0.0
25/11:00pm 29.1 32.3 24.9 78 2.9 WNW 17 20 9 11 1009.9 - 0.0
25/10:30pm 29.1 32.3 24.4 76 3.3 WNW 15 20 8 11 1009.8 - 0.0
25/10:00pm 29.1 32.1 24.0 74 3.5 WNW 15 20 8 11 1009.6 - 0.0
25/09:30pm 29.4 32.3 24.5 75 3.4 WNW 17 22 9 12 1009.4 - 0.0
25/09:00pm 29.6 32.1 24.5 74 3.6 WNW 19 24 10 13 1009.0 1009.0 0.0
25/08:30pm 29.5 31.4 23.7 71 4.0 NW 20 26 11 14 1008.6 - 0.0
25/08:00pm 29.5 31.7 23.9 72 3.9 NW 19 24 10 13 1008.2 - 0.0
25/07:30pm 29.5 31.8 23.4 69 4.2 NW 17 24 9 13 1007.7 - 0.0
25/07:00pm 29.7 31.6 22.7 66 4.8 NW 17 20 9 11 1007.4 - 0.0
25/06:30pm 30.2 32.7 22.4 63 5.3 NNW 13 22 7 12 1007.1 - 0.0
25/06:00pm 30.9 33.8 22.5 61 5.7 NNW 11 17 6 9 1007.0 1007.0 0.0
25/05:30pm 31.3 34.2 23.1 61 5.6 NNW 13 20 7 11 1006.8 - 0.0
25/05:00pm 32.0 35.5 23.5 60 5.9 N 11 20 6 11 1006.6 - 0.0
25/04:30pm 31.8 35.1 23.9 63 5.5 N 13 22 7 12 1006.7 - 0.0
25/04:00pm 32.5 35.9 25.3 66 5.1 NNW 17 28 9 15 1006.7 - 0.0
25/03:30pm 32.8 36.2 25.3 64 5.3 NNW 17 26 9 14 1006.8 - 0.0
25/03:00pm 32.8 36.5 25.1 64 5.5 NNW 15 22 8 12 1006.8 1006.8 0.0
25/02:30pm 33.0 36.4 24.7 61 5.8 NNW 15 24 8 13 1007.0 - 0.0
25/02:00pm 33.0 36.3 24.5 61 6.0 NNW 15 22 8 12 1007.4 - 0.0
25/01:30pm 33.3 36.5 25.0 61 5.9 NNW 17 24 9 13 1007.7 - 0.0
25/01:00pm 33.0 36.0 25.3 64 5.5 NNW 19 26 10 14 1008.1 - 0.0
25/12:30pm 32.9 37.0 25.7 66 5.1 NNW 15 24 8 13 1008.6 - 0.0
25/12:00pm 32.3 36.2 25.4 67 4.9 NNW 15 26 8 14 1009.2 1009.2 0.0
25/11:30am 32.4 36.3 26.0 69 4.6 NW 17 24 9 13 1009.7 - 0.0
25/11:00am 31.9 35.9 26.2 72 4.1 NW 17 22 9 12 1010.1 - 0.0
25/10:30am 31.2 35.2 26.2 75 3.6 NW 17 20 9 11 1010.1 - 0.0
25/10:00am 30.8 36.3 26.7 79 2.9 NW 11 19 6 10 1010.3 - 0.0
25/09:30am 30.0 35.9 26.2 80 2.7 WNW 7 15 4 8 1010.2 - 0.0
25/09:00am 29.3 35.8 26.3 84 2.1 S 4 9 2 5 1010.2 1010.2 0.0
25/08:30am 27.9 33.7 25.7 88 1.6 SSE 6 9 3 5 1010.1 - 0.0
25/08:00am 26.5 31.8 25.3 93 0.8 SE 7 9 4 5 1009.8 - 0.0
25/07:30am 25.4 30.2 24.5 95 0.6 E 7 9 4 5 1009.4 - 0.0
25/07:00am 23.9 28.6 22.7 93 0.8 SE 2 7 1 4 1008.9 - 0.0
25/06:30am 23.5 27.4 21.9 91 1.1 S 4 9 2 5 1008.5 - 0.0
25/06:00am 24.0 28.9 22.3 90 1.1 CALM 0 0 0 0 1008.1 1008.1 0.0
25/05:30am 24.1 28.9 22.2 89 1.3 CALM 0 0 0 0 1008.1 - 0.0
25/05:00am 24.3 29.1 22.2 88 1.4 CALM 0 0 0 0 1007.7 - 0.0
25/04:30am 24.5 29.2 22.0 86 1.7 CALM 0 0 0 0 1007.8 - 0.0
25/04:00am 24.7 29.4 22.0 85 1.8 CALM 0 0 0 0 1008.0 - 0.0
25/03:30am 24.8 28.7 21.9 84 1.9 SSW 4 6 2 3 1008.0 - 0.0
25/03:00am 25.0 28.5 22.1 84 1.9 SSW 7 9 4 5 1008.0 1008.0 0.0
25/02:30am 25.0 28.4 21.7 82 2.2 SSW 6 7 3 4 1008.1 - 0.0
25/02:00am 25.1 28.5 21.6 81 2.3 SW 6 9 3 5 1008.3 - 0.0
25/01:30am 25.8 30.5 21.9 79 2.6 CALM 0 0 0 0 1008.6 - 0.0
25/01:00am 25.9 30.5 21.8 78 2.7 CALM 0 0 0 0 1008.8 - 0.0
25/12:30am 26.2 30.1 21.8 77 2.9 SW 4 7 2 4 1008.9 - 0.0
25/12:00am 28.0 31.5 24.2 80 2.6 WNW 13 15 7 8 1009.0 1009.0 0.0
 
Date/Time
CST
Temp
°C
App
Temp
°C
Dew
Point
°C
Rel
Hum
%
Delta-T
°C
Wind Press
QNH
hPa
Press
MSL
hPa
Rain since
9am
mm
Dir  Spd
km/h
Gust
km/h
Spd
kts
Gust
kts
24/11:30pm 28.0 31.0 24.0 79 2.8 NW 15 24 8 13 1009.3 - 0.0
24/11:00pm 28.0 31.5 23.6 77 3.0 NW 11 17 6 9 1009.5 - 0.0
24/10:30pm 27.9 30.6 22.8 74 3.5 NNW 13 17 7 9 1009.4 - 0.0
24/10:00pm 27.6 31.1 22.1 72 3.7 NNW 7 11 4 6 1009.0 - 0.0
24/09:30pm 27.5 30.8 21.8 71 3.8 NNW 7 9 4 5 1008.6 - 0.0
24/09:00pm 27.4 29.9 21.0 68 4.2 NNW 9 11 5 6 1008.3 1008.3 0.0
24/08:30pm 27.7 30.3 20.5 65 4.7 NW 7 9 4 5 1007.9 - 0.0
24/08:00pm 28.1 31.3 20.4 63 5.1 NNW 4 7 2 4 1007.5 - 0.0
24/07:30pm 28.7 31.4 20.2 60 5.6 NNW 6 7 3 4 1007.2 - 0.0
24/07:00pm 29.4 32.0 20.0 57 6.2 NNW 6 7 3 4 1006.9 - 0.0
24/06:30pm 30.4 33.3 20.6 55 6.5 N 6 9 3 5 1006.6 - 0.0

Latest Capital City Observations: Canberra | Sydney | Melbourne | Brisbane | Adelaide | Perth | Hobart | Darwin

Other Formats:

Comma delimited format used in spreadsheet applications
http://www.bom.gov.au/fwo/IDD60901/IDD60901.94127.axf

JavaScript Object Notation format (JSON) in row-major order
http://www.bom.gov.au/fwo/IDD60901/IDD60901.94127.json